Flight Track Log - Related Links

Times and Time Zones

All times are in EDT time to prevent confusion due to time zone crossing. See the UCA5001 flight status page for this flight to view local times or setup timezone preferences in your user account.

Time Position Orientation Groundspeed Altitude Reporting Facility
EDT Latitude Longitude Course Direction KTS MPH feet Rate Location/Type
Tue 11:44:42 AM 42.7361 -73.8111 209° Southwest 127 146 1,000  Level Boston Center
Tue 11:45:06 AM 42.7214 -73.8078 171° South 132 152 1,700 1,595 Climbing Boston Center
Tue 11:46:01 AM 42.6858 -73.8297 204° Southwest 166 191 3,100 1,612 Climbing Boston Center
Tue 11:47:20 AM 42.6353 -73.8708 211° Southwest 158 182 5,300 1,562 Climbing Boston Center
Tue 11:48:27 AM 42.5911 -73.9036 209° Southwest 163 188 6,900 1,388 Climbing Boston Center
Tue 11:49:21 AM 42.5511 -73.9339 209° Southwest 176 203 8,100 1,339 Climbing Boston Center
Tue 11:50:00 AM 42.3988 -73.8661 209° Southwest  Level Estimated
Tue 11:50:28 AM 42.5028 -73.9692 208° Southwest 188 216 9,600  Level Boston Center
Tue 11:51:23 AM 42.4603 -74.0106 216° Southwest 203 234 10,100 343 Climbing Boston Center
Tue 11:51:38 AM 42.4436 -74.0183 199° South 232 267 10,000 -80 Descending Boston Center
Tue 11:52:38 AM 42.3825 -74.0647 209° Southwest 271 312 10,000 -50 Level Boston Center
Tue 11:53:38 AM 42.3256 -74.1108 211° Southwest 270 311 9,900 -50 Descending Boston Center
Tue 11:54:38 AM 42.2581 -74.1653 211° Southwest 264 304 9,900  Level Boston Center
Tue 11:55:38 AM 42.2011 -74.2086 209° Southwest 264 304 9,900  Level Boston Center
Tue 11:56:38 AM 42.1317 -74.2569 207° Southwest 264 304 9,900  Level Boston Center
Tue 11:57:38 AM 42.0767 -74.3003 210° Southwest 264 304 9,900 50 Level Boston Center
Tue 11:58:38 AM 42.0072 -74.3456 206° Southwest 264 304 10,000 50 Climbing Boston Center
Tue 11:59:38 AM 41.9522 -74.3858 209° Southwest 264 304 10,000 -250 Level Boston Center
Tue 12:00:38 PM 41.8806 -74.4394 209° Southwest 264 304 9,500 -500 Descending Boston Center
Tue 12:01:38 PM 41.8192 -74.4819 207° Southwest 270 311 9,000 -600 Descending Boston Center
Tue 12:02:38 PM 41.7456 -74.5297 206° Southwest 275 316 8,300 -650 Descending Boston Center
Tue 12:03:38 PM 41.6744 -74.5414 187° South 261 300 7,700 -555 Descending Boston Center
Tue 12:04:37 PM 41.6178 -74.5533 189° South 261 300 7,200 -600 Descending Boston Center
Tue 12:05:38 PM 41.5364 -74.5672 187° South 261 300 6,500 -595 Descending Boston Center
Tue 12:06:38 PM 41.4653 -74.5786 187° South 254 292 6,000 -250 Descending Boston Center
Tue 12:07:38 PM 41.4003 -74.5958 191° South 254 292 6,000  Level Boston Center
Tue 12:08:46 PM 41.3333 -74.6167 193° South 236 272 6,000  Level New York TRACON
Tue 12:09:46 PM 41.2667 -74.6500 201° Southwest 239 275 6,000  Level New York TRACON
Tue 12:10:46 PM 41.2000 -74.6500 180° South 237 273 6,000 -350 Level New York TRACON
Tue 12:11:46 PM 41.1333 -74.6167 159° South 251 289 5,300 -850 Descending New York TRACON
Tue 12:12:46 PM 41.0667 -74.5833 159° South 241 277 4,300 -600 Descending New York TRACON
Tue 12:13:46 PM 41.0167 -74.5667 166° South 234 269 4,100 -104 Descending New York TRACON
Tue 12:14:41 PM 40.9500 -74.5333 159° South 233 268 4,100 -365 Level New York TRACON
Tue 12:15:41 PM 40.9000 -74.5000 153° Southeast 238 274 3,400 -500 Descending New York TRACON
Tue 12:16:41 PM 40.8333 -74.4667 159° South 233 268 3,100 -300 Descending New York TRACON
Tue 12:17:41 PM 40.7833 -74.4333 153° Southeast 212 244 2,800 -500 Descending New York TRACON
Tue 12:18:41 PM 40.7333 -74.4000 153° Southeast 166 191 2,100 -350 Descending New York TRACON
Tue 12:19:41 PM 40.7167 -74.3500 114° Southeast 166 191 2,100 -50 Level New York TRACON
Tue 12:20:41 PM 40.7167 -74.3000 90° East 140 161 2,000 -403 Descending New York TRACON
Tue 12:21:40 PM 40.7000 -74.2500 114° Southeast 118 136 1,300 -712 Descending New York TRACON

Login

Don't have an account? Register now (free) for customized features, flight alerts, and more!